createdAt,value
2022-11-30T00:01:22.328Z,7.45
2022-11-30T00:03:54.182Z,10.93
2022-11-30T00:06:23.624Z,8.05
2022-11-30T00:08:56.609Z,7.45
2022-11-30T00:11:25.698Z,6.95
2022-11-30T00:13:53.054Z,9.55
2022-11-30T00:16:20.029Z,10.20
2022-11-30T00:18:46.824Z,7.18
2022-11-30T00:21:15.472Z,3.95
2022-11-30T00:23:44.678Z,10.52
2022-11-30T00:26:14.515Z,5.93
2022-11-30T00:28:44.013Z,12.05
2022-11-30T00:31:14.297Z,9.48
2022-11-30T00:33:41.476Z,10.43
2022-11-30T00:36:14.005Z,7.20
2022-11-30T00:38:40.901Z,8.15
2022-11-30T00:41:08.312Z,9.02
2022-11-30T00:43:35.033Z,13.20
2022-11-30T00:46:02.040Z,9.52
2022-11-30T00:48:29.211Z,9.05
2022-11-30T00:50:56.041Z,6.93
2022-11-30T00:53:22.878Z,4.60
2022-11-30T00:55:50.196Z,5.78
2022-11-30T00:58:17.379Z,8.60
2022-11-30T01:00:44.847Z,10.30
2022-11-30T01:03:12.501Z,9.68
2022-11-30T01:05:39.587Z,8.82
2022-11-30T01:08:09.174Z,7.03
2022-11-30T01:10:37.448Z,10.85
2022-11-30T01:13:04.447Z,5.30
2022-11-30T01:15:32.007Z,10.38
2022-11-30T01:18:01.593Z,11.07
2022-11-30T01:20:28.559Z,8.80
2022-11-30T01:22:56.127Z,7.32
2022-11-30T01:25:23.595Z,6.13
2022-11-30T01:27:51.219Z,5.80
2022-11-30T01:30:19.046Z,5.93
2022-11-30T01:32:45.861Z,11.18
2022-11-30T01:35:12.989Z,8.18
2022-11-30T01:37:39.928Z,8.52
2022-11-30T01:40:07.358Z,7.32
2022-11-30T01:42:34.227Z,7.30
2022-11-30T01:45:02.879Z,6.85
2022-11-30T01:47:41.217Z,5.05
2022-11-30T01:50:32.980Z,8.82
2022-11-30T01:52:59.912Z,12.45
2022-11-30T01:55:42.996Z,7.13
2022-11-30T01:58:14.161Z,4.47
2022-11-30T02:00:45.815Z,4.90
2022-11-30T02:03:36.879Z,8.18
2022-11-30T02:06:03.782Z,8.43
2022-11-30T02:08:31.929Z,5.15
2022-11-30T02:11:03.363Z,8.13
2022-11-30T02:18:58.475Z,4.05
2022-11-30T02:21:29.651Z,7.90
2022-11-30T02:24:21.076Z,3.25
2022-11-30T02:27:18.900Z,3.47
2022-11-30T02:30:03.099Z,4.47
2022-11-30T02:32:36.048Z,6.10
2022-11-30T02:35:05.855Z,6.53
2022-11-30T02:37:35.287Z,4.53
2022-11-30T02:40:06.967Z,3.72
2022-11-30T02:42:33.905Z,5.20
2022-11-30T02:45:00.710Z,8.50
2022-11-30T02:47:59.332Z,5.65
2022-11-30T02:50:30.812Z,6.43
2022-11-30T02:52:57.877Z,7.15
2022-11-30T02:55:24.805Z,7.10
2022-11-30T02:57:51.604Z,5.80
2022-11-30T03:00:18.879Z,6.25
2022-11-30T03:02:45.684Z,5.20
2022-11-30T03:05:12.581Z,5.32
2022-11-30T03:07:39.579Z,8.23
2022-11-30T03:10:07.077Z,4.53
2022-11-30T03:12:34.161Z,4.68
2022-11-30T03:15:01.006Z,3.67
2022-11-30T03:17:27.899Z,2.63
2022-11-30T03:19:54.693Z,5.07
2022-11-30T03:22:21.597Z,8.25
2022-11-30T03:24:48.541Z,5.85
2022-11-30T03:27:15.945Z,5.65
2022-11-30T03:29:42.709Z,5.60
2022-11-30T03:32:09.696Z,3.88
2022-11-30T03:34:36.423Z,2.83
2022-11-30T03:37:03.560Z,3.95
2022-11-30T03:39:30.587Z,7.95
2022-11-30T03:41:57.417Z,3.42
2022-11-30T03:44:24.167Z,5.70
2022-11-30T03:46:51.001Z,6.13
2022-11-30T03:49:17.783Z,3.83
2022-11-30T03:51:44.605Z,4.60
2022-11-30T03:54:11.330Z,5.38
2022-11-30T03:56:38.098Z,1.15
2022-11-30T03:59:04.917Z,1.45
2022-11-30T04:01:31.739Z,3.90
2022-11-30T04:03:58.589Z,2.35
2022-11-30T04:06:25.480Z,4.28
2022-11-30T04:08:52.262Z,2.60
2022-11-30T04:11:19.041Z,1.25
2022-11-30T04:13:46.085Z,2.67
2022-11-30T04:16:12.965Z,1.10
2022-11-30T04:18:40.148Z,1.48
2022-11-30T04:21:08.184Z,1.85
2022-11-30T04:23:37.319Z,2.38
2022-11-30T04:26:05.781Z,2.92
2022-11-30T04:28:33.174Z,2.28
2022-11-30T04:31:01.098Z,1.98
2022-11-30T04:33:28.572Z,2.15
2022-11-30T04:36:01.197Z,1.77
2022-11-30T04:38:28.699Z,2.28
2022-11-30T04:40:56.249Z,1.90
2022-11-30T04:43:23.324Z,0.75
2022-11-30T04:45:50.213Z,1.30
2022-11-30T04:48:18.054Z,2.47
2022-11-30T04:50:45.225Z,1.08
2022-11-30T04:53:12.295Z,0.43
2022-11-30T04:55:39.412Z,1.85
2022-11-30T04:58:07.936Z,3.63
2022-11-30T05:00:35.874Z,3.45
2022-11-30T05:03:02.916Z,2.03
2022-11-30T05:05:29.744Z,1.85
2022-11-30T05:07:58.532Z,3.28
2022-11-30T05:10:27.198Z,1.77
2022-11-30T05:12:54.114Z,2.47
2022-11-30T05:15:21.324Z,2.05
2022-11-30T05:17:48.136Z,2.53
2022-11-30T05:20:15.094Z,2.63
2022-11-30T05:22:41.942Z,2.25
2022-11-30T05:25:09.514Z,2.75
2022-11-30T05:27:37.116Z,2.78
2022-11-30T05:30:05.167Z,0.70
2022-11-30T05:32:31.978Z,0.80
2022-11-30T05:34:58.955Z,0.32
2022-11-30T05:37:26.110Z,1.17
2022-11-30T05:39:52.864Z,0.20
2022-11-30T05:42:19.634Z,2.63
2022-11-30T05:44:48.290Z,1.38
2022-11-30T05:47:16.271Z,0.75
2022-11-30T05:49:43.246Z,0.55
2022-11-30T05:52:10.486Z,0.32
2022-11-30T05:54:37.243Z,1.00
2022-11-30T05:57:05.445Z,0.30
2022-11-30T05:59:32.317Z,2.60
2022-11-30T06:01:59.454Z,0.70
2022-11-30T06:04:26.433Z,1.95
2022-11-30T06:06:55.922Z,0.75
2022-11-30T06:09:23.684Z,0.52
2022-11-30T06:11:50.962Z,0.73
2022-11-30T06:14:18.009Z,0.52
2022-11-30T06:16:45.102Z,0.32
2022-11-30T06:19:11.943Z,0.80
2022-11-30T06:21:38.722Z,1.15
2022-11-30T06:24:05.777Z,0.77
2022-11-30T06:26:32.592Z,0.63
2022-11-30T06:28:59.304Z,1.85
2022-11-30T06:31:26.201Z,0.10
2022-11-30T06:33:57.325Z,0.95
2022-11-30T06:36:24.499Z,1.45
2022-11-30T06:38:52.029Z,0.20
2022-11-30T06:41:19.307Z,0.40
2022-11-30T06:43:46.182Z,0.20
2022-11-30T06:46:13.414Z,1.48
2022-11-30T06:48:40.792Z,0.85
2022-11-30T06:51:08.932Z,0.75
2022-11-30T06:53:36.575Z,1.17
2022-11-30T06:56:10.300Z,0.55
2022-11-30T06:58:38.936Z,2.72
2022-11-30T07:01:10.729Z,0.10
2022-11-30T07:03:38.425Z,1.73
2022-11-30T07:06:11.227Z,0.10
2022-11-30T07:08:39.152Z,0.82
2022-11-30T07:11:06.871Z,0.28
2022-11-30T07:13:34.029Z,0.20
2022-11-30T07:16:05.527Z,0.55
2022-11-30T07:18:32.965Z,0.93
2022-11-30T07:21:04.414Z,0.60
2022-11-30T07:23:55.912Z,0.73
2022-11-30T07:26:24.485Z,1.58
2022-11-30T07:28:55.311Z,2.80
2022-11-30T07:31:26.658Z,0.47
2022-11-30T07:33:53.628Z,1.42
2022-11-30T07:36:22.311Z,1.55
2022-11-30T07:38:49.804Z,1.75
2022-11-30T07:41:16.596Z,0.30
2022-11-30T07:43:45.985Z,1.83
2022-11-30T07:46:14.449Z,1.85
2022-11-30T07:48:41.843Z,0.20
2022-11-30T07:51:14.360Z,0.50
2022-11-30T07:53:41.723Z,0.85
2022-11-30T07:56:11.661Z,2.45
2022-11-30T07:58:40.153Z,0.47
2022-11-30T08:01:09.890Z,2.53
2022-11-30T08:03:37.632Z,0.60
2022-11-30T08:06:07.457Z,3.17
2022-11-30T08:08:37.776Z,1.08
2022-11-30T08:11:05.563Z,1.98
2022-11-30T08:13:32.707Z,1.38
2022-11-30T08:16:07.687Z,1.27
2022-11-30T08:18:35.246Z,1.88
2022-11-30T08:21:04.601Z,1.52
2022-11-30T08:23:33.635Z,0.63
2022-11-30T08:26:31.146Z,3.05
2022-11-30T08:28:59.253Z,2.50
2022-11-30T08:31:29.412Z,4.20
2022-11-30T08:34:01.902Z,3.13
2022-11-30T08:36:29.821Z,3.45
2022-11-30T08:39:01.173Z,3.50
2022-11-30T08:43:55.581Z,4.78
2022-11-30T08:49:26.781Z,1.70
2022-11-30T08:57:33.714Z,3.53
2022-11-30T09:00:00.588Z,3.42
2022-11-30T09:02:27.514Z,1.42
2022-11-30T09:04:54.281Z,2.60
2022-11-30T09:07:21.246Z,2.05
2022-11-30T09:09:48.103Z,2.60
2022-11-30T09:12:14.874Z,2.40
2022-11-30T09:14:41.868Z,3.22
2022-11-30T09:17:08.621Z,4.22
2022-11-30T09:19:35.465Z,2.13
2022-11-30T09:22:02.193Z,2.50
2022-11-30T09:24:28.973Z,3.33
2022-11-30T09:26:57.164Z,1.55
2022-11-30T09:29:24.512Z,2.95
2022-11-30T09:31:51.391Z,1.50
2022-11-30T09:34:18.252Z,0.82
2022-11-30T09:36:45.009Z,2.22
2022-11-30T09:39:13.160Z,0.60
2022-11-30T09:42:01.290Z,1.55
2022-11-30T09:44:40.152Z,2.20
2022-11-30T09:47:32.472Z,2.70
2022-11-30T09:50:12.712Z,2.88
2022-11-30T09:52:48.692Z,0.90
2022-11-30T09:55:23.766Z,1.42
2022-11-30T09:57:55.322Z,0.52
2022-11-30T10:00:24.275Z,0.75
2022-11-30T10:02:53.419Z,0.82
2022-11-30T10:05:23.798Z,2.95
2022-11-30T10:08:12.534Z,2.00
2022-11-30T10:10:51.109Z,1.23
2022-11-30T10:13:48.583Z,2.15
2022-11-30T10:16:36.017Z,1.92
2022-11-30T10:19:21.190Z,0.45
2022-11-30T10:22:13.649Z,5.53
2022-11-30T10:25:23.540Z,1.23
2022-11-30T10:27:51.882Z,0.82
2022-11-30T10:30:24.167Z,0.30
2022-11-30T10:32:56.319Z,1.70
2022-11-30T10:35:34.940Z,1.55
2022-11-30T10:38:12.471Z,0.63
2022-11-30T10:40:47.757Z,1.02
2022-11-30T10:43:26.611Z,2.53
2022-11-30T10:45:53.652Z,1.52
2022-11-30T10:48:42.859Z,1.50
2022-11-30T10:51:12.152Z,1.58
2022-11-30T10:53:39.042Z,1.33
2022-11-30T10:56:11.236Z,1.55
2022-11-30T10:58:50.324Z,1.40
2022-11-30T11:01:37.986Z,1.85
2022-11-30T11:04:18.511Z,0.60
2022-11-30T11:06:55.695Z,0.60
2022-11-30T11:09:28.502Z,0.63
2022-11-30T11:12:00.140Z,0.20
2022-11-30T11:14:29.730Z,3.08
2022-11-30T11:17:04.531Z,2.00
2022-11-30T11:19:40.433Z,0.47
2022-11-30T11:22:27.383Z,1.83
2022-11-30T11:25:09.675Z,2.58
2022-11-30T11:27:39.914Z,0.57
2022-11-30T11:30:44.037Z,0.20
2022-11-30T11:33:13.836Z,0.63
2022-11-30T11:35:49.922Z,2.33
2022-11-30T11:38:46.909Z,1.42
2022-11-30T11:41:24.460Z,1.60
2022-11-30T11:44:21.387Z,0.55
2022-11-30T11:46:55.829Z,5.70
2022-11-30T11:49:42.871Z,1.60
2022-11-30T11:52:09.601Z,0.57
2022-11-30T11:54:48.861Z,1.45
2022-11-30T11:57:19.767Z,1.38
2022-11-30T12:00:05.627Z,0.45
2022-11-30T12:02:48.180Z,1.92
2022-11-30T12:05:17.848Z,0.63
2022-11-30T12:07:59.260Z,0.98
2022-11-30T12:13:24.523Z,1.55
2022-11-30T12:16:20.724Z,0.80
2022-11-30T12:18:50.476Z,0.45
2022-11-30T12:21:31.630Z,1.33
2022-11-30T12:24:35.923Z,4.18
2022-11-30T12:27:20.683Z,2.25
2022-11-30T12:30:15.979Z,1.65
2022-11-30T12:33:04.759Z,2.47
2022-11-30T12:35:40.644Z,1.25
2022-11-30T12:38:32.205Z,0.70
2022-11-30T12:43:54.309Z,2.00
2022-11-30T12:46:41.437Z,0.32
2022-11-30T12:49:14.418Z,0.93
2022-11-30T12:51:51.391Z,0.35
2022-11-30T12:54:42.313Z,1.20
2022-11-30T12:57:15.185Z,0.95
2022-11-30T12:59:41.859Z,2.47
2022-11-30T13:02:41.109Z,0.75
2022-11-30T13:05:12.866Z,0.10
2022-11-30T13:07:57.055Z,0.43
2022-11-30T13:10:37.072Z,1.45
2022-11-30T13:13:04.868Z,1.90
2022-11-30T13:15:34.360Z,1.08
2022-11-30T13:18:03.259Z,0.73
2022-11-30T13:20:51.205Z,1.05
2022-11-30T13:23:47.158Z,1.08
2022-11-30T13:26:42.551Z,0.30
2022-11-30T13:29:28.049Z,0.70
2022-11-30T13:32:17.713Z,4.40
2022-11-30T13:34:54.646Z,0.47
2022-11-30T13:37:27.214Z,0.68
2022-11-30T13:39:58.499Z,0.40
2022-11-30T13:42:36.021Z,0.77
2022-11-30T13:45:11.874Z,0.65
2022-11-30T13:47:49.795Z,1.63
2022-11-30T13:50:32.813Z,1.55
2022-11-30T13:53:34.125Z,1.33
2022-11-30T13:56:34.440Z,1.70
2022-11-30T13:59:34.761Z,0.82
2022-11-30T14:02:36.539Z,0.93
2022-11-30T14:05:18.940Z,1.10
2022-11-30T14:07:52.992Z,0.35
2022-11-30T14:10:29.478Z,0.28
2022-11-30T14:13:23.572Z,0.77
2022-11-30T14:15:50.358Z,0.50
2022-11-30T14:18:19.888Z,0.15
2022-11-30T14:21:38.433Z,0.40
2022-11-30T14:24:19.664Z,0.70
2022-11-30T14:26:50.132Z,0.17
2022-11-30T14:29:32.622Z,1.50
2022-11-30T14:32:12.430Z,1.40
2022-11-30T14:34:44.465Z,1.05
2022-11-30T14:37:28.003Z,1.60
2022-11-30T14:39:58.209Z,0.70
2022-11-30T14:42:30.049Z,1.58
2022-11-30T14:44:58.665Z,2.80
2022-11-30T14:47:29.141Z,2.17
2022-11-30T14:50:02.034Z,2.67
2022-11-30T14:52:44.222Z,2.22
2022-11-30T14:55:30.150Z,2.10
2022-11-30T14:58:07.628Z,2.80
2022-11-30T15:00:43.722Z,4.40
2022-11-30T15:03:29.376Z,3.88
2022-11-30T15:06:00.591Z,4.07
2022-11-30T15:08:37.976Z,4.80
2022-11-30T15:11:09.577Z,3.95
2022-11-30T15:13:47.358Z,6.00
2022-11-30T15:16:53.209Z,5.15
2022-11-30T15:19:29.280Z,9.07
2022-11-30T15:21:57.924Z,6.32
2022-11-30T15:24:25.851Z,8.18
2022-11-30T15:27:10.742Z,2.15
2022-11-30T15:29:42.943Z,6.25
2022-11-30T15:32:18.898Z,6.80
2022-11-30T15:34:54.938Z,12.63
2022-11-30T15:37:35.581Z,5.88
2022-11-30T15:40:05.891Z,4.95
2022-11-30T15:42:41.474Z,7.05
2022-11-30T15:45:33.204Z,5.07
2022-11-30T15:48:01.563Z,6.25
2022-11-30T15:50:31.086Z,9.20
2022-11-30T15:53:24.681Z,6.75
2022-11-30T15:55:55.641Z,7.43
2022-11-30T15:58:28.626Z,9.18
2022-11-30T16:01:00.511Z,8.25
2022-11-30T16:03:27.392Z,6.18
2022-11-30T16:05:58.080Z,4.95
2022-11-30T16:08:24.925Z,4.88
2022-11-30T16:10:52.011Z,8.52
2022-11-30T16:13:22.026Z,8.65
2022-11-30T16:15:50.941Z,8.23
2022-11-30T16:18:19.401Z,7.18
2022-11-30T16:20:52.975Z,4.45
2022-11-30T16:23:20.727Z,6.18
2022-11-30T16:25:49.603Z,6.63
2022-11-30T16:28:18.391Z,5.55
2022-11-30T16:30:46.200Z,10.30
2022-11-30T16:33:19.377Z,8.57
2022-11-30T16:35:56.159Z,7.68
2022-11-30T16:38:24.192Z,10.18
2022-11-30T16:40:54.081Z,15.38
2022-11-30T16:43:21.008Z,9.98
2022-11-30T16:45:50.444Z,9.55
2022-11-30T16:48:17.853Z,7.45
2022-11-30T16:50:45.222Z,9.30
2022-11-30T16:53:17.266Z,13.32
2022-11-30T16:55:44.131Z,16.35
2022-11-30T16:58:11.056Z,11.90
2022-11-30T17:00:40.302Z,4.68
2022-11-30T17:03:09.858Z,10.55
2022-11-30T17:05:37.326Z,11.77
2022-11-30T17:08:04.357Z,11.88
2022-11-30T17:10:31.371Z,7.75
2022-11-30T17:12:58.143Z,7.45
2022-11-30T17:15:25.263Z,7.88
2022-11-30T17:17:52.035Z,10.48
2022-11-30T17:20:19.233Z,5.93
2022-11-30T17:22:46.067Z,9.05
2022-11-30T17:25:18.495Z,8.25
2022-11-30T17:27:45.738Z,7.97
2022-11-30T17:30:15.246Z,11.45
2022-11-30T17:32:42.102Z,6.20
2022-11-30T17:35:09.326Z,8.23
2022-11-30T17:37:36.172Z,9.90
2022-11-30T17:40:04.229Z,12.27
2022-11-30T17:42:31.392Z,9.05
2022-11-30T17:44:58.266Z,9.15
2022-11-30T17:47:25.657Z,9.57
2022-11-30T17:49:52.458Z,9.95
2022-11-30T17:52:19.191Z,6.75
2022-11-30T17:54:46.133Z,4.28
2022-11-30T17:57:13.157Z,8.02
2022-11-30T17:59:39.995Z,4.28
2022-11-30T18:02:06.930Z,6.50
2022-11-30T18:04:33.708Z,6.43
2022-11-30T18:07:00.546Z,4.45
2022-11-30T18:09:27.886Z,4.53
2022-11-30T18:11:54.774Z,5.40
2022-11-30T18:14:21.592Z,7.25
2022-11-30T18:16:48.404Z,6.47
2022-11-30T18:19:15.656Z,8.85
2022-11-30T18:21:45.969Z,4.80
2022-11-30T18:24:13.132Z,6.05
2022-11-30T18:26:40.104Z,7.20
2022-11-30T18:29:07.863Z,4.15
2022-11-30T18:31:36.427Z,7.22
2022-11-30T18:34:05.945Z,4.47
2022-11-30T18:36:34.127Z,6.53
2022-11-30T18:39:00.945Z,6.65
2022-11-30T18:41:30.282Z,6.40
2022-11-30T18:43:57.919Z,5.03
2022-11-30T18:46:26.170Z,3.88
2022-11-30T18:48:54.712Z,3.83
2022-11-30T18:51:27.352Z,5.47
2022-11-30T18:54:05.593Z,7.38
2022-11-30T18:56:35.077Z,6.30
2022-11-30T18:59:12.360Z,4.20
2022-11-30T19:01:39.533Z,8.85
2022-11-30T19:04:08.678Z,6.18
2022-11-30T19:06:36.964Z,7.38
2022-11-30T19:09:09.931Z,7.68
2022-11-30T19:11:37.780Z,4.05
2022-11-30T19:14:04.605Z,8.48
2022-11-30T19:16:34.610Z,6.55
2022-11-30T19:19:04.477Z,6.13
2022-11-30T19:21:31.359Z,5.15
2022-11-30T19:23:58.454Z,5.55
2022-11-30T19:26:28.004Z,4.53
2022-11-30T19:28:56.426Z,4.75
2022-11-30T19:31:24.908Z,6.72
2022-11-30T19:33:54.254Z,8.32
2022-11-30T19:36:23.504Z,6.38
2022-11-30T19:38:51.665Z,5.65
2022-11-30T19:41:20.131Z,6.72
2022-11-30T19:43:54.743Z,8.15
2022-11-30T19:46:24.157Z,5.28
2022-11-30T19:48:56.879Z,7.32
2022-11-30T19:51:23.958Z,6.00
2022-11-30T19:53:55.721Z,7.63
2022-11-30T19:56:23.612Z,4.65
2022-11-30T19:58:50.837Z,6.60
2022-11-30T20:01:23.029Z,15.80
2022-11-30T20:03:56.242Z,5.55
2022-11-30T20:06:32.054Z,5.03
2022-11-30T20:08:58.863Z,6.63
2022-11-30T20:11:25.849Z,8.07
2022-11-30T20:13:52.717Z,7.88
2022-11-30T20:16:21.064Z,7.00
2022-11-30T20:19:02.587Z,12.65
2022-11-30T20:24:01.208Z,10.50
2022-11-30T20:26:31.420Z,10.10
2022-11-30T20:29:00.224Z,7.25
2022-11-30T20:31:28.128Z,8.48
2022-11-30T20:33:55.289Z,11.60
2022-11-30T20:36:22.152Z,11.23
2022-11-30T20:38:49.158Z,11.60
2022-11-30T20:41:20.902Z,12.75
2022-11-30T20:43:48.586Z,9.55
2022-11-30T20:46:16.375Z,14.07
2022-11-30T20:48:43.242Z,13.35
2022-11-30T20:51:30.275Z,13.02
2022-11-30T20:53:59.631Z,14.27
2022-11-30T20:56:26.430Z,14.45
2022-11-30T20:58:53.188Z,15.23
2022-11-30T21:01:22.462Z,14.63
2022-11-30T21:03:49.593Z,16.63
2022-11-30T21:06:16.594Z,13.05
2022-11-30T21:08:43.527Z,13.10
2022-11-30T21:11:13.847Z,19.23
2022-11-30T21:13:42.958Z,17.83
2022-11-30T21:16:10.647Z,18.05
2022-11-30T21:18:39.202Z,11.90
2022-11-30T21:21:08.554Z,17.83
2022-11-30T21:23:35.358Z,22.80
2022-11-30T21:26:07.671Z,21.30
2022-11-30T21:28:38.314Z,11.40
2022-11-30T21:31:06.101Z,20.42
2022-11-30T21:33:33.601Z,18.80
2022-11-30T21:36:04.277Z,20.00
2022-11-30T21:38:31.014Z,18.52
2022-11-30T21:41:00.199Z,13.63
2022-11-30T21:43:28.504Z,21.17
2022-11-30T21:46:03.806Z,16.98
2022-11-30T21:48:33.355Z,25.98
2022-11-30T21:51:02.033Z,21.48
2022-11-30T21:53:29.797Z,19.15
2022-11-30T21:56:02.287Z,16.55
2022-11-30T21:58:31.178Z,12.10
2022-11-30T22:00:59.491Z,23.45
2022-11-30T22:03:26.579Z,13.88
2022-11-30T22:06:04.613Z,15.13
2022-11-30T22:08:32.092Z,15.77
2022-11-30T22:11:10.281Z,14.10
2022-11-30T22:13:37.928Z,16.92
2022-11-30T22:16:11.504Z,17.10
2022-11-30T22:18:39.047Z,11.32
2022-11-30T22:21:17.162Z,16.10
2022-11-30T22:23:46.955Z,9.05
2022-11-30T22:26:25.092Z,15.98
2022-11-30T22:29:08.174Z,14.60
2022-11-30T22:31:38.395Z,18.70
2022-11-30T22:34:06.091Z,15.82
2022-11-30T22:36:35.409Z,10.43
2022-11-30T22:39:11.197Z,15.35
2022-11-30T22:41:39.781Z,13.90
2022-11-30T22:44:07.049Z,12.82
2022-11-30T22:46:36.034Z,11.98
2022-11-30T22:49:05.940Z,13.18
2022-11-30T22:51:34.648Z,16.88
2022-11-30T22:54:02.487Z,11.13
2022-11-30T22:56:32.090Z,13.55
2022-11-30T22:59:00.945Z,10.88
2022-11-30T23:01:49.743Z,9.73
2022-11-30T23:04:19.441Z,8.32
2022-11-30T23:06:48.411Z,11.52
2022-11-30T23:09:21.509Z,8.05
2022-11-30T23:11:48.742Z,8.60
2022-11-30T23:14:16.737Z,9.23
2022-11-30T23:16:45.213Z,13.32
2022-11-30T23:19:13.052Z,10.43
2022-11-30T23:21:42.286Z,10.25
2022-11-30T23:24:16.382Z,8.90
2022-11-30T23:26:43.779Z,7.70
2022-11-30T23:29:12.719Z,7.72
2022-11-30T23:31:41.301Z,9.35
2022-11-30T23:34:11.706Z,16.55
2022-11-30T23:36:38.776Z,8.43
2022-11-30T23:39:14.023Z,9.18
2022-11-30T23:41:41.385Z,12.40
2022-11-30T23:44:09.357Z,15.02
2022-11-30T23:46:36.588Z,14.40
2022-11-30T23:49:03.731Z,14.07
2022-11-30T23:51:30.494Z,12.38
2022-11-30T23:53:57.334Z,12.25
2022-11-30T23:56:24.748Z,10.73
2022-11-30T23:58:52.209Z,11.43
